POT weather

Ken Jones Airport
Ken Jones, Portland, Jamaica

Public forecast

Using degrees Celsius for public forecast. Weather courtesy of forecast.io.

METAR (pilot weather report)

Closest report is Norman Manley International Airport, 21.4 nm (39.6 km) SW. Retrieved 2019/03/21 05:00 UTC (13 minutes ago):

MKJP 210500Z VRB01KT 9999 BKN022 26/18 Q1015

TAF (pilot weather forecast)

Forecast is more than 6 hours old.

Closest forecast is Norman Manley International Airport, 21.4 nm (39.6 km) SW. Retrieved 2019/03/20 18:21 UTC (11 hours ago):

TAF MKJP 201715Z 2018/2118 15013KT 9999 FEW022 TEMPO 2020/2023 FEW020 SCT034 BECMG 2100/2102 35005KT TEMPO 2109/2113 SCT020 SCT038 BECMG 2114/2116 17010KT